Time;durP1;ratioP1;P1;durP2;ratioP2;P2;SDS_P1;SDS_P2;PMS_P1;PMS_P2;Temp;Humidity;BMP_temperature;BMP_pressure;BME280_temperature;BME280_humidity;BME280_pressure;Samples;Min_cycle;Max_cycle;Signal;HPM_P1;HPM_P2
2021/03/24 00:01:20;;;;;;;3.70;2.40;;;;;;;-0.83;66.89;99616.07;1728797;83;21272;-60
2021/03/24 00:03:50;;;;;;;5.03;2.13;;;;;;;-0.85;66.88;99603.53;1698943;83;21134;-62
2021/03/24 00:06:18;;;;;;;3.53;2.20;;;;;;;-0.87;67.06;99614.80;1729305;81;21370;-61
2021/03/24 00:08:45;;;;;;;3.43;2.13;;;;;;;-0.89;66.96;99610.17;1728569;82;21198;-59
2021/03/24 00:11:15;;;;;;;2.77;1.93;;;;;;;-0.89;66.97;99613.64;1670424;83;21198;-61
2021/03/24 00:13:44;;;;;;;4.77;3.50;;;;;;;-0.89;66.89;99616.28;1707207;84;21208;-60
2021/03/24 00:16:12;;;;;;;4.23;2.73;;;;;;;-0.99;67.05;99606.46;1708853;82;21238;-60
2021/03/24 00:18:41;;;;;;;4.37;2.80;;;;;;;-1.06;67.31;99617.92;1725125;83;21404;-61
2021/03/24 00:21:09;;;;;;;4.70;2.40;;;;;;;-1.09;67.35;99620.39;1704989;84;21180;-61
2021/03/24 00:23:36;;;;;;;3.40;2.33;;;;;;;-1.07;67.41;99624.19;1717494;83;21665;-61
2021/03/24 00:26:03;;;;;;;3.70;2.27;;;;;;;-1.02;67.40;99633.72;1711130;82;21188;-60
2021/03/24 00:28:30;;;;;;;1.83;1.70;;;;;;;-1.06;67.38;99626.66;1719468;82;21165;-62
2021/03/24 00:30:58;;;;;;;5.20;2.33;;;;;;;-1.06;67.46;99634.58;1732787;82;21936;-63
2021/03/24 00:33:26;;;;;;;3.53;2.20;;;;;;;-1.05;67.36;99624.31;1732745;82;21626;-63
2021/03/24 00:35:55;;;;;;;4.17;2.47;;;;;;;-1.04;67.28;99628.60;1729252;82;21169;-64
2021/03/24 00:38:25;;;;;;;3.30;3.00;;;;;;;-1.05;67.38;99625.64;1734278;82;21061;-62
2021/03/24 00:40:56;;;;;;;5.37;2.67;;;;;;;-1.06;67.38;99637.22;1734398;82;21152;-61
2021/03/24 00:43:25;;;;;;;6.03;3.00;;;;;;;-1.08;67.46;99633.92;1735338;82;21210;-63
2021/03/24 00:45:53;;;;;;;3.33;2.10;;;;;;;-1.09;67.45;99631.45;1732754;82;21191;-62
2021/03/24 00:48:27;;;;;;;3.63;1.83;;;;;;;-1.10;67.51;99631.94;1734133;82;21145;-61
2021/03/24 00:50:56;;;;;;;4.13;2.30;;;;;;;-1.05;67.48;99632.23;1734363;82;21133;-60
2021/03/24 00:53:24;;;;;;;3.73;2.27;;;;;;;-1.01;67.21;99627.45;1734306;82;21195;-59
2021/03/24 00:55:52;;;;;;;4.63;2.67;;;;;;;-1.00;67.15;99626.42;1721441;82;21209;-61
2021/03/24 00:58:20;;;;;;;3.03;2.37;;;;;;;-1.02;67.11;99638.99;1717643;83;21166;-60
2021/03/24 01:00:49;;;;;;;3.27;2.73;;;;;;;-1.00;67.08;99643.58;1704945;84;21179;-61
2021/03/24 01:03:18;;;;;;;4.67;2.67;;;;;;;-1.00;67.03;99653.64;1705035;84;21602;-60
2021/03/24 01:05:47;;;;;;;4.70;2.43;;;;;;;-0.98;67.01;99652.98;1716813;83;21200;-61
2021/03/24 01:08:19;;;;;;;4.33;2.03;;;;;;;-0.99;67.02;99652.66;1715538;82;21391;-60
2021/03/24 01:10:47;;;;;;;3.90;2.40;;;;;;;-1.02;67.12;99653.51;1704975;84;21562;-60
2021/03/24 01:13:15;;;;;;;3.67;2.63;;;;;;;-1.04;67.19;99668.19;1704797;84;21050;-61
2021/03/24 01:15:44;;;;;;;6.37;2.93;;;;;;;-1.06;67.20;99670.20;1706046;82;21586;-61
2021/03/24 01:18:16;;;;;;;2.47;2.27;;;;;;;-1.03;67.26;99664.56;1719827;82;21192;-64
2021/03/24 01:20:45;;;;;;;3.13;2.50;;;;;;;-0.99;67.20;99671.62;1721890;82;21384;-61
2021/03/24 01:23:12;;;;;;;3.07;2.50;;;;;;;-1.01;67.14;99675.75;1722420;83;21195;-62
2021/03/24 01:25:40;;;;;;;2.30;2.10;;;;;;;-0.99;67.17;99675.58;1730608;82;21144;-61
2021/03/24 01:28:13;;;;;;;2.37;2.07;;;;;;;-0.97;67.11;99678.38;1718883;82;21121;-61
2021/03/24 01:30:40;;;;;;;3.40;3.05;;;;;;;-1.03;67.13;99680.39;1734418;82;21160;-61
2021/03/24 01:33:07;;;;;;;3.23;2.90;;;;;;;-1.04;67.28;99684.52;1734343;82;22114;-60
2021/03/24 01:35:36;;;;;;;4.13;2.93;;;;;;;-1.08;67.43;99683.23;1732185;82;21638;-61
2021/03/24 01:38:04;;;;;;;2.80;2.60;;;;;;;-1.07;67.39;99675.16;1733597;82;21212;-62
2021/03/24 01:40:39;;;;;;;3.17;2.10;;;;;;;-1.07;67.46;99689.67;1734283;82;21175;-62
2021/03/24 01:43:11;;;;;;;4.20;1.92;;;;;;;-1.15;67.78;99682.30;1727935;82;21673;-61
2021/03/24 01:49:22;;;;;;;3.63;2.83;;;;;;;-1.13;68.04;99690.85;1889209;76;26735;-65
2021/03/24 01:51:59;;;;;;;4.47;2.53;;;;;;;-1.16;68.06;99681.48;1860013;77;21471;-62
2021/03/24 01:54:40;;;;;;;2.87;2.20;;;;;;;-1.11;68.00;99688.87;1822402;78;21462;-62
2021/03/24 01:57:25;;;;;;;2.00;1.90;;;;;;;-1.10;68.01;99687.85;1794793;78;21075;-62
2021/03/24 01:59:54;;;;;;;2.87;2.43;;;;;;;-1.10;68.03;99702.37;1789886;80;21015;-60
2021/03/24 02:02:32;;;;;;;2.97;2.73;;;;;;;-1.10;68.01;99685.22;1789978;80;21630;-62
2021/03/24 02:05:02;;;;;;;2.97;2.37;;;;;;;-1.05;67.97;99693.43;1799119;78;21603;-61
2021/03/24 02:07:39;;;;;;;5.53;2.10;;;;;;;-1.04;67.85;99705.63;1786624;80;21402;-60
2021/03/24 02:10:24;;;;;;;3.30;3.00;;;;;;;-1.08;67.99;99703.02;1771686;81;21620;-61
2021/03/24 02:13:00;;;;;;;3.37;2.77;;;;;;;-1.03;68.02;99699.37;1772835;81;21582;-62
2021/03/24 02:15:32;;;;;;;2.63;2.37;;;;;;;-1.02;67.92;99693.09;1773074;80;21204;-64
2021/03/24 02:18:00;;;;;;;3.73;2.17;;;;;;;-1.03;67.87;99700.69;1780817;80;21577;-62
2021/03/24 02:20:35;;;;;;;4.90;3.63;;;;;;;-1.02;67.92;99689.14;1788522;80;21390;-65
2021/03/24 02:23:11;;;;;;;3.73;2.60;;;;;;;-1.03;68.04;99686.17;1777820;80;21023;-62
2021/03/24 02:25:50;;;;;;;2.27;2.10;;;;;;;-0.98;67.97;99695.70;1786811;79;21204;-62
2021/03/24 02:28:17;;;;;;;3.13;2.83;;;;;;;-0.96;68.04;99704.28;1783683;78;21132;-60
2021/03/24 02:30:47;;;;;;;3.03;2.50;;;;;;;-1.01;68.05;99708.73;1816931;79;21106;-60
2021/03/24 02:33:25;;;;;;;3.23;2.77;;;;;;;-1.00;68.18;99703.78;1816888;79;21579;-60
2021/03/24 02:35:58;;;;;;;3.23;2.53;;;;;;;-0.95;68.16;99718.60;1779958;80;21150;-60
2021/03/24 02:38:26;;;;;;;3.90;2.70;;;;;;;-0.94;67.95;99711.51;1778931;80;25586;-59
2021/03/24 02:40:53;;;;;;;3.57;2.63;;;;;;;-0.92;68.12;99710.35;1770775;81;21773;-61
2021/03/24 02:43:21;;;;;;;2.57;2.33;;;;;;;-0.88;67.96;99713.45;1740583;81;21153;-61
2021/03/24 02:45:48;;;;;;;2.53;2.33;;;;;;;-0.85;68.00;99717.05;1770522;79;21376;-60
2021/03/24 02:48:20;;;;;;;2.60;2.40;;;;;;;-0.81;67.96;99716.19;1768380;80;21877;-61
2021/03/24 02:50:52;;;;;;;3.73;2.60;;;;;;;-0.79;67.89;99720.31;1829664;78;21098;-62
2021/03/24 02:53:19;;;;;;;3.37;3.07;;;;;;;-0.82;67.98;99722.50;1815430;78;21142;-61
2021/03/24 02:55:47;;;;;;;3.17;2.53;;;;;;;-0.83;68.06;99725.63;1824592;78;21101;-63
2021/03/24 02:58:14;;;;;;;3.43;2.87;;;;;;;-0.86;68.14;99726.48;1798725;79;22121;-60
2021/03/24 03:00:42;;;;;;;3.77;3.17;;;;;;;-0.86;68.13;99725.17;1799204;78;21732;-61
2021/03/24 03:03:19;;;;;;;14.33;2.57;;;;;;;-0.87;68.22;99734.91;1800497;78;21056;-61
2021/03/24 03:05:46;;;;;;;3.57;2.60;;;;;;;-0.91;68.27;99732.27;1799105;78;21666;-60
2021/03/24 03:08:30;;;;;;;4.07;2.77;;;;;;;-0.89;68.34;99732.43;1760384;81;21566;-61
2021/03/24 03:11:07;;;;;;;2.73;2.53;;;;;;;-0.84;68.33;99737.19;1732713;81;21165;-61
2021/03/24 03:13:41;;;;;;;2.67;2.47;;;;;;;-0.82;68.24;99729.92;1760178;81;21033;-62
2021/03/24 03:16:32;;;;;;;2.27;2.05;;;;;;;-0.81;68.20;99734.67;1760975;80;21198;-61
2021/03/24 03:19:08;;;;;;;2.83;2.63;;;;;;;-0.76;68.27;99727.88;1760350;81;21195;-62
2021/03/24 03:21:45;;;;;;;4.20;3.77;;;;;;;-0.74;68.23;99732.98;1760243;81;20980;-62
2021/03/24 03:24:14;;;;;;;3.77;3.00;;;;;;;-0.77;68.21;99734.17;1760349;80;21206;-62
2021/03/24 03:26:43;;;;;;;4.60;3.00;;;;;;;-0.75;68.27;99740.58;1762460;80;21368;-63
2021/03/24 03:29:17;;;;;;;2.70;2.50;;;;;;;-0.73;68.30;99738.10;1761283;80;21130;-63
2021/03/24 03:31:47;;;;;;;3.07;2.53;;;;;;;-0.74;68.21;99741.73;1760327;81;21067;-61
2021/03/24 03:34:15;;;;;;;4.37;2.63;;;;;;;-0.78;68.52;99750.19;1760909;80;21133;-61
2021/03/24 03:36:46;;;;;;;3.13;2.77;;;;;;;-0.75;68.49;99748.50;1760402;81;22283;-61
2021/03/24 03:39:17;;;;;;;2.57;2.27;;;;;;;-0.73;68.39;99754.44;1762426;80;21161;-63
2021/03/24 03:41:45;;;;;;;3.73;3.43;;;;;;;-0.68;68.31;99748.96;1761099;80;21594;-61
2021/03/24 03:44:13;;;;;;;2.40;2.20;;;;;;;-0.64;68.17;99752.06;1765235;80;21050;-63
2021/03/24 03:46:47;;;;;;;3.20;2.87;;;;;;;-0.70;68.21;99747.48;1760403;81;21189;-60
2021/03/24 03:49:15;;;;;;;3.83;3.47;;;;;;;-0.80;68.35;99754.31;1759249;80;21379;-62
2021/03/24 03:52:11;;;;;;;5.07;2.80;;;;;;;-0.77;68.38;99762.39;1763917;80;21134;-60
2021/03/24 03:55:07;;;;;;;4.33;3.23;;;;;;;-0.76;68.35;99753.45;1772992;80;21135;-62
2021/03/24 03:57:53;;;;;;;2.50;2.30;;;;;;;-0.75;68.31;99759.89;1773974;80;21130;-62
2021/03/24 04:00:31;;;;;;;8.10;3.00;;;;;;;-0.82;68.45;99757.64;1764136;79;21169;-62
2021/03/24 04:03:12;;;;;;;4.37;3.37;;;;;;;-0.86;68.58;99759.48;1764050;81;21219;-61
2021/03/24 04:05:49;;;;;;;3.83;3.10;;;;;;;-0.90;68.63;99770.38;1763943;81;21113;-62
2021/03/24 04:08:20;;;;;;;2.70;2.50;;;;;;;-0.92;68.77;99767.11;1764127;81;21106;-60
2021/03/24 04:10:57;;;;;;;6.10;3.47;;;;;;;-0.93;68.61;99776.02;1764059;81;21627;-62
2021/03/24 04:13:28;;;;;;;5.53;3.33;;;;;;;-0.94;68.60;99779.64;1765922;79;21153;-64
2021/03/24 04:16:00;;;;;;;5.83;3.30;;;;;;;-0.90;68.54;99772.19;1752191;81;21248;-61
2021/03/24 04:18:42;;;;;;;3.27;2.58;;;;;;;-0.95;68.73;99781.95;1755685;81;21152;-60
2021/03/24 04:21:11;;;;;;;3.87;3.00;;;;;;;-0.93;68.69;99778.66;1755810;80;21027;-63
2021/03/24 04:23:44;;;;;;;7.23;3.13;;;;;;;-0.92;68.57;99790.04;1783167;80;21090;-62
2021/03/24 04:26:17;;;;;;;3.00;2.70;;;;;;;-0.86;68.56;99787.20;1787939;80;21158;-61
2021/03/24 04:28:47;;;;;;;3.20;2.90;;;;;;;-0.86;68.52;99795.13;1768531;80;21241;-62
2021/03/24 04:31:15;;;;;;;3.20;2.80;;;;;;;-0.85;68.46;99802.02;1787500;79;21142;-63
2021/03/24 04:33:43;;;;;;;3.17;2.87;;;;;;;-0.86;68.36;99797.77;1768602;80;21028;-63
2021/03/24 04:36:18;;;;;;;5.13;4.70;;;;;;;-0.89;68.23;99794.96;1784027;79;21035;-61
2021/03/24 04:38:50;;;;;;;4.70;3.37;;;;;;;-0.89;68.33;99808.16;1783276;80;21157;-63
2021/03/24 04:41:21;;;;;;;2.87;2.57;;;;;;;-0.91;68.38;99806.17;1783072;80;22134;-67
2021/03/24 04:43:53;;;;;;;5.57;4.43;;;;;;;-0.95;68.60;99812.31;1782931;80;21023;-62
2021/03/24 04:46:24;;;;;;;4.03;3.37;;;;;;;-1.02;68.44;99812.69;1756939;80;21071;-61
2021/03/24 04:49:06;;;;;;;3.23;2.87;;;;;;;-1.08;68.89;99809.91;1781236;79;21598;-61
2021/03/24 04:51:37;;;;;;;5.83;3.00;;;;;;;-1.04;68.94;99825.72;1785038;80;21134;-65
2021/03/24 04:54:10;;;;;;;6.10;4.40;;;;;;;-1.00;68.91;99821.73;1770756;80;21377;-62
2021/03/24 04:56:39;;;;;;;4.47;3.02;;;;;;;-0.96;68.66;99827.81;1788739;79;21015;-63
2021/03/24 04:59:06;;;;;;;3.70;2.67;;;;;;;-0.94;68.28;99814.45;1787577;79;21581;-64
2021/03/24 05:01:41;;;;;;;3.60;3.30;;;;;;;-0.90;68.23;99824.98;1788416;80;21595;-63
2021/03/24 05:04:27;;;;;;;3.83;2.70;;;;;;;-0.93;68.25;99815.61;1769167;80;21600;-63
2021/03/24 05:06:59;;;;;;;4.20;2.80;;;;;;;-0.98;68.24;99819.76;1787841;79;21215;-63
2021/03/24 05:09:26;;;;;;;3.27;2.93;;;;;;;-0.91;68.25;99818.05;1799439;79;21602;-62
2021/03/24 05:12:11;;;;;;;4.63;3.30;;;;;;;-0.87;67.92;99831.27;1748504;82;21185;-63
2021/03/24 05:14:59;;;;;;;4.67;3.27;;;;;;;-0.82;67.70;99841.30;1722284;82;21192;-63
2021/03/24 05:17:34;;;;;;;3.77;2.87;;;;;;;-0.76;67.48;99824.74;1750344;82;21170;-62
2021/03/24 05:20:19;;;;;;;4.17;3.77;;;;;;;-0.70;67.31;99834.62;1757253;80;21386;-62
2021/03/24 05:22:46;;;;;;;6.73;3.73;;;;;;;-0.64;67.16;99835.25;1782813;80;21125;-63
2021/03/24 05:25:36;;;;;;;3.53;3.20;;;;;;;-0.58;66.44;99824.00;1752170;81;21574;-63
2021/03/24 05:28:23;;;;;;;9.17;4.20;;;;;;;-0.52;66.30;99828.56;1755582;81;21173;-62
2021/03/24 05:31:04;;;;;;;3.60;3.20;;;;;;;-0.46;66.18;99833.97;1755611;81;21133;-61
2021/03/24 05:33:39;;;;;;;8.37;3.63;;;;;;;-0.42;65.51;99843.69;1783157;80;21353;-62
2021/03/24 05:36:21;;;;;;;4.90;3.80;;;;;;;-0.38;65.78;99845.50;1783034;80;21034;-63
2021/03/24 05:38:53;;;;;;;4.73;3.77;;;;;;;-0.30;65.35;99845.43;1785951;79;21627;-61
2021/03/24 05:41:47;;;;;;;6.13;3.93;;;;;;;-0.24;65.41;99848.17;1788319;80;21098;-65
2021/03/24 05:44:46;;;;;;;7.03;5.10;;;;;;;-0.18;64.94;99853.26;1847063;75;26455;-63
2021/03/24 05:47:41;;;;;;;4.60;3.63;;;;;;;-0.21;65.04;99857.09;1816387;78;21449;-65
2021/03/24 05:50:42;;;;;;;8.80;4.07;;;;;;;-0.17;64.84;99850.94;1817173;79;21409;-63
2021/03/24 05:53:56;;;;;;;6.83;3.93;;;;;;;-0.15;64.36;99853.75;1817163;79;20998;-62
2021/03/24 05:56:46;;;;;;;4.87;3.33;;;;;;;-0.14;64.07;99859.83;1816778;79;21046;-62
2021/03/24 05:59:26;;;;;;;4.30;3.67;;;;;;;-0.11;64.26;99866.11;1778327;78;26555;-62
2021/03/24 06:01:57;;;;;;;7.57;4.77;;;;;;;-0.08;64.46;99856.48;1769708;81;21068;-62
2021/03/24 06:04:42;;;;;;;4.27;3.67;;;;;;;-0.03;64.36;99870.82;1770854;81;21214;-62
2021/03/24 06:07:52;;;;;;;6.40;4.97;;;;;;;0.06;64.24;99869.42;1846834;76;27142;-63
2021/03/24 06:10:58;;;;;;;5.47;4.03;;;;;;;0.03;64.39;99880.37;1817122;78;21132;-63
2021/03/24 06:14:13;;;;;;;9.43;5.23;;;;;;;0.05;64.68;99877.85;1817033;79;22437;-61
2021/03/24 06:16:52;;;;;;;4.95;3.58;;;;;;;0.11;64.61;99884.26;1761010;79;21054;-64
2021/03/24 06:19:34;;;;;;;4.90;4.33;;;;;;;0.04;64.16;99882.84;1796414;79;20963;-62
2021/03/24 06:22:27;;;;;;;5.23;3.57;;;;;;;0.07;64.44;99885.62;1724255;82;21081;-62
2021/03/24 06:25:28;;;;;;;6.17;3.77;;;;;;;0.09;64.29;99893.71;1720357;83;21073;-63
2021/03/24 06:28:10;;;;;;;8.17;4.83;;;;;;;0.14;64.12;99891.86;1732063;81;21471;-62
2021/03/24 06:30:56;;;;;;;8.13;4.97;;;;;;;0.20;64.31;99897.23;1732012;82;21030;-61
2021/03/24 06:33:59;;;;;;;8.13;4.80;;;;;;;0.24;64.17;99897.20;1741244;81;21018;-63
2021/03/24 06:36:49;;;;;;;6.20;4.07;;;;;;;0.29;64.35;99898.81;1762133;81;21133;-63
2021/03/24 06:39:54;;;;;;;6.90;4.13;;;;;;;0.36;64.14;99900.25;1753233;81;21172;-63
2021/03/24 06:42:41;;;;;;;4.10;3.33;;;;;;;0.38;63.88;99893.77;1755904;80;21658;-63
2021/03/24 06:45:32;;;;;;;7.33;4.33;;;;;;;0.47;63.86;99901.65;1784026;80;21602;-61
2021/03/24 06:48:08;;;;;;;6.07;4.57;;;;;;;0.45;63.10;99903.14;1752085;80;21050;-62
2021/03/24 06:51:02;;;;;;;6.73;4.80;;;;;;;0.41;63.28;99904.50;1784808;80;21165;-62
2021/03/24 06:54:15;;;;;;;6.87;5.73;;;;;;;0.43;63.10;99913.09;1782516;80;21010;-63
2021/03/24 06:57:06;;;;;;;7.13;4.80;;;;;;;0.41;63.69;99901.86;1784926;80;21201;-63
2021/03/24 07:00:17;;;;;;;4.67;4.00;;;;;;;0.42;63.35;99910.13;1784114;80;21511;-62
2021/03/24 07:03:22;;;;;;;7.20;5.20;;;;;;;0.42;62.85;99900.37;1754580;80;21557;-62
2021/03/24 07:06:27;;;;;;;7.00;5.60;;;;;;;0.49;63.20;99915.01;1784395;80;21137;-63
2021/03/24 07:09:40;;;;;;;8.00;5.27;;;;;;;0.57;63.57;99919.42;1784438;80;21145;-64
2021/03/24 07:12:15;;;;;;;4.87;3.87;;;;;;;0.67;63.42;99922.10;1770033;80;22789;-63
2021/03/24 07:15:16;;;;;;;5.55;4.30;;;;;;;0.70;62.70;99917.80;1753609;81;21283;-64
2021/03/24 07:18:24;;;;;;;8.83;3.87;;;;;;;0.68;62.95;99914.48;1753416;80;21129;-64
2021/03/24 07:21:22;;;;;;;9.37;5.23;;;;;;;0.66;62.89;99924.45;1754907;80;21164;-62
2021/03/24 07:24:01;;;;;;;7.57;5.53;;;;;;;0.68;63.29;99926.41;1783095;80;21133;-63
2021/03/24 07:27:22;;;;;;;5.70;4.30;;;;;;;0.71;63.07;99928.71;1784253;80;21363;-65
2021/03/24 07:30:24;;;;;;;6.70;5.03;;;;;;;0.76;63.05;99930.81;1748981;82;21093;-63
2021/03/24 07:32:57;;;;;;;7.50;4.40;;;;;;;0.82;63.29;99937.51;1712441;83;21307;-64
2021/03/24 07:36:10;;;;;;;5.80;4.20;;;;;;;0.86;63.08;99941.97;1767745;80;25268;-63
2021/03/24 07:39:04;;;;;;;17.40;4.70;;;;;;;0.90;63.12;99932.65;1784263;80;21124;-63
2021/03/24 07:41:54;;;;;;;8.43;5.23;;;;;;;0.96;63.32;99932.43;1753259;81;21816;-64
2021/03/24 07:45:14;;;;;;;10.90;5.47;;;;;;;1.04;63.49;99940.28;1754865;80;21200;-63
2021/03/24 07:48:09;;;;;;;5.30;4.47;;;;;;;1.16;63.76;99946.75;1753166;81;21185;-64
2021/03/24 07:50:57;;;;;;;8.13;5.33;;;;;;;1.26;63.08;99942.00;1753126;81;21149;-64
2021/03/24 07:53:49;;;;;;;5.87;4.90;;;;;;;1.31;62.87;99939.13;1753355;80;21629;-64
2021/03/24 07:56:28;;;;;;;5.90;3.93;;;;;;;1.39;63.03;99936.86;1704921;84;21405;-62
2021/03/24 07:59:04;;;;;;;5.67;3.83;;;;;;;1.44;62.79;99936.34;1715154;83;20998;-63
2021/03/24 08:02:05;;;;;;;26.30;9.80;;;;;;;1.52;62.70;99928.27;1749802;82;21108;-66
2021/03/24 08:04:55;;;;;;;9.10;4.70;;;;;;;1.58;62.74;99932.84;1730769;82;21180;-64
2021/03/24 08:08:01;;;;;;;10.00;6.20;;;;;;;1.60;62.07;99944.06;1748245;81;21211;-64
2021/03/24 08:10:52;;;;;;;6.47;4.80;;;;;;;1.63;62.20;99932.58;1738235;82;21299;-63
2021/03/24 08:13:48;;;;;;;9.37;6.00;;;;;;;1.68;62.43;99941.30;1749401;80;21184;-65
2021/03/24 08:16:50;;;;;;;13.80;6.17;;;;;;;1.76;62.68;99950.48;1746328;82;21113;-67
2021/03/24 08:19:46;;;;;;;8.10;4.23;;;;;;;1.93;63.01;99951.06;1726702;82;21010;-63
2021/03/24 08:22:40;;;;;;;7.63;4.80;;;;;;;2.03;61.93;99941.80;1723864;82;21563;-67
2021/03/24 08:25:46;;;;;;;6.55;5.70;;;;;;;2.09;61.83;99956.14;1746602;82;21388;-64
2021/03/24 08:28:42;;;;;;;7.70;4.80;;;;;;;2.19;61.89;99964.11;1745649;82;20971;-65
2021/03/24 08:31:55;;;;;;;6.90;4.37;;;;;;;2.34;61.64;99957.92;1755527;80;20983;-64
2021/03/24 08:34:52;;;;;;;11.97;5.33;;;;;;;2.41;60.53;99949.50;1777108;80;21165;-64
2021/03/24 08:37:49;;;;;;;10.07;6.07;;;;;;;2.43;60.81;99959.44;1777068;80;21236;-64
2021/03/24 08:40:40;;;;;;;8.03;5.73;;;;;;;2.51;61.27;99970.73;1774652;80;21181;-64
2021/03/24 08:43:29;;;;;;;8.73;6.27;;;;;;;2.66;60.55;99951.25;1777003;80;21431;-62
2021/03/24 08:46:36;;;;;;;8.60;5.40;;;;;;;2.72;60.30;99972.55;1760635;80;21125;-69
2021/03/24 08:49:22;;;;;;;7.83;4.53;;;;;;;2.73;59.92;99958.77;1766799;80;20999;-65
2021/03/24 08:52:07;;;;;;;21.80;8.83;;;;;;;2.77;60.17;99965.34;1746405;82;21567;-65
2021/03/24 08:55:05;;;;;;;9.10;6.80;;;;;;;2.84;60.34;99968.34;1763523;80;21603;-64
2021/03/24 08:58:04;;;;;;;6.57;5.27;;;;;;;2.91;59.78;99969.23;1746300;80;21599;-64
2021/03/24 09:00:54;;;;;;;7.30;5.23;;;;;;;2.99;59.25;99962.94;1728635;83;21161;-64
2021/03/24 09:04:03;;;;;;;6.37;4.73;;;;;;;3.07;59.27;99961.45;1716635;83;21159;-65
2021/03/24 09:06:51;;;;;;;8.00;4.80;;;;;;;3.10;59.04;99969.05;1756443;81;21196;-64
2021/03/24 09:09:46;;;;;;;7.77;5.60;;;;;;;3.17;59.01;99967.73;1731468;82;21384;-65
2021/03/24 09:12:31;;;;;;;4.90;4.33;;;;;;;3.25;59.13;99967.61;1727205;82;21188;-63
2021/03/24 09:15:17;;;;;;;5.20;4.07;;;;;;;3.28;58.60;99963.22;1783995;80;21109;-65
2021/03/24 09:18:06;;;;;;;8.30;5.33;;;;;;;3.33;58.63;99970.09;1783338;80;21106;-63
2021/03/24 09:21:14;;;;;;;7.05;5.78;;;;;;;3.34;58.87;99964.59;1784305;80;21138;-63
2021/03/24 09:24:17;;;;;;;8.65;5.45;;;;;;;3.44;59.21;99962.40;1764868;80;21082;-64
2021/03/24 09:27:17;;;;;;;11.60;7.20;;;;;;;3.57;58.14;99956.31;1752539;81;21196;-64
2021/03/24 09:30:23;;;;;;;7.10;5.03;;;;;;;3.64;58.05;99955.84;1752758;81;20986;-65
2021/03/24 09:32:57;;;;;;;7.15;5.72;;;;;;;3.66;57.91;99956.95;1753651;80;21678;-66
2021/03/24 09:35:42;;;;;;;7.17;5.47;;;;;;;3.75;57.76;99953.92;1777643;80;21113;-64
2021/03/24 09:38:14;;;;;;;6.22;5.25;;;;;;;3.76;57.25;99951.58;1784436;80;21368;-65
2021/03/24 09:40:45;;;;;;;;;;;;;;;3.81;56.75;99959.78;1786809;80;21161;-64
2021/03/24 09:43:24;;;;;;;6.83;5.50;;;;;;;3.78;56.88;99966.84;1783147;80;20135;-64
2021/03/24 09:46:03;;;;;;;6.67;4.47;;;;;;;3.84;57.13;99951.90;1784051;80;21685;-64
2021/03/24 09:48:50;;;;;;;9.55;5.45;;;;;;;3.89;56.39;99964.09;1776940;80;21197;-65
2021/03/24 09:51:25;;;;;;;6.62;4.90;;;;;;;3.95;56.70;99968.13;1784332;80;21413;-64
2021/03/24 09:54:08;;;;;;;7.45;5.95;;;;;;;4.08;56.37;99957.19;1755932;80;21579;-63
2021/03/24 09:56:35;;;;;;;12.15;6.03;;;;;;;4.16;55.96;99971.16;1755773;80;21168;-66
2021/03/24 09:59:29;;;;;;;16.85;8.78;;;;;;;4.26;55.62;99951.62;1752931;81;21149;-63
2021/03/24 10:02:29;;;;;;;5.03;4.50;;;;;;;4.39;55.20;99933.50;1759815;80;21018;-67
2021/03/24 10:05:02;;;;;;;9.10;5.78;;;;;;;4.47;53.66;99949.27;1784251;80;22174;-64
2021/03/24 10:07:31;;;;;;;9.80;4.97;;;;;;;4.54;52.91;99959.94;1782110;80;21018;-63
2021/03/24 10:10:22;;;;;;;8.50;5.50;;;;;;;4.61;53.38;99953.58;1774522;80;21048;-63
2021/03/24 10:13:17;;;;;;;9.23;5.50;;;;;;;4.68;53.36;99959.73;1771874;80;21175;-65
2021/03/24 10:15:49;;;;;;;8.00;5.53;;;;;;;4.79;52.10;99951.14;1772147;80;21146;-63
2021/03/24 10:18:28;;;;;;;5.80;4.50;;;;;;;4.80;50.83;99942.09;1753720;80;21789;-64
2021/03/24 10:21:10;;;;;;;8.03;5.72;;;;;;;4.81;50.35;99962.39;1779480;80;21150;-64
2021/03/24 10:23:47;;;;;;;6.58;4.42;;;;;;;4.83;50.33;99942.21;1779943;80;21051;-64
2021/03/24 10:26:31;;;;;;;12.78;4.35;;;;;;;4.90;49.55;99952.33;1756727;81;21064;-64
2021/03/24 10:29:09;;;;;;;13.18;6.30;;;;;;;4.95;48.62;99961.05;1761233;80;21126;-63
2021/03/24 10:31:53;;;;;;;7.17;5.08;;;;;;;5.03;48.91;99948.86;1729483;83;21595;-64
2021/03/24 10:34:46;;;;;;;5.95;4.53;;;;;;;5.15;48.77;99944.52;1757528;80;21169;-69
2021/03/24 10:37:32;;;;;;;8.40;5.25;;;;;;;5.26;48.75;99933.21;1747824;81;21154;-66
2021/03/24 10:40:14;;;;;;;13.28;5.10;;;;;;;5.34;47.78;99942.31;1730761;82;21183;-64
2021/03/24 10:43:04;;;;;;;9.90;5.08;;;;;;;5.32;46.55;99947.05;1777251;80;21181;-64
2021/03/24 10:45:47;;;;;;;5.17;3.33;;;;;;;5.26;46.34;99945.22;1747203;81;21030;-64
2021/03/24 10:48:23;;;;;;;6.10;4.10;;;;;;;5.23;46.57;99947.77;1779736;80;20975;-64
2021/03/24 10:51:21;;;;;;;8.60;3.20;;;;;;;5.24;46.76;99956.08;1761638;80;21582;-64
2021/03/24 10:53:49;;;;;;;5.22;4.15;;;;;;;5.28;46.08;99957.30;1690166;84;21277;-66
2021/03/24 10:56:34;;;;;;;5.80;3.62;;;;;;;5.30;46.06;99958.43;1698096;84;21152;-65
2021/03/24 10:59:29;;;;;;;5.20;4.00;;;;;;;5.36;45.83;99945.60;1888861;76;22436;-62
2021/03/24 11:02:23;;;;;;;5.50;3.83;;;;;;;5.37;45.67;99935.21;1852891;77;20947;-61
2021/03/24 11:05:11;;;;;;;5.22;3.42;;;;;;;5.44;44.51;99937.87;1835460;77;21362;-62
2021/03/24 11:08:11;;;;;;;2.85;2.42;;;;;;;5.48;43.45;99943.08;1854501;75;20943;-61
2021/03/24 11:11:00;;;;;;;12.63;2.85;;;;;;;5.57;41.75;99939.97;1815536;75;21326;-64
2021/03/24 11:13:57;;;;;;;8.05;5.75;;;;;;;5.57;41.75;99939.97;1782597;79;20931;-62
2021/03/24 11:16:38;;;;;;;9.63;4.53;;;;;;;5.69;42.52;99940.96;1786640;78;21038;-62
2021/03/24 11:19:34;;;;;;;4.47;2.98;;;;;;;5.88;42.05;99943.27;1820527;78;21545;-60
2021/03/24 11:22:39;;;;;;;3.90;2.62;;;;;;;5.93;41.74;99940.77;1789130;78;21492;-61
2021/03/24 11:25:23;;;;;;;6.65;4.22;;;;;;;6.03;40.70;99937.64;1772681;80;21113;-62
2021/03/24 11:27:59;;;;;;;7.72;3.42;;;;;;;6.18;40.93;99938.69;1793576;80;21051;-61
2021/03/24 11:30:38;;;;;;;7.55;3.30;;;;;;;6.34;40.01;99927.47;1781278;80;21132;-66
2021/03/24 11:33:35;;;;;;;3.27;2.17;;;;;;;6.40;40.27;99921.27;1787219;80;21372;-64
2021/03/24 11:36:34;;;;;;;5.62;3.17;;;;;;;6.43;39.98;99930.17;1771899;78;21137;-63
2021/03/24 11:39:06;;;;;;;9.93;4.10;;;;;;;6.53;41.05;99931.33;1793775;78;21057;-65
2021/03/24 11:41:38;;;;;;;4.72;3.30;;;;;;;6.70;40.31;99939.63;1769198;80;21155;-63
2021/03/24 11:44:14;;;;;;;5.42;3.90;;;;;;;6.79;40.08;99931.64;1739863;82;21152;-65
2021/03/24 11:46:54;;;;;;;4.30;3.27;;;;;;;6.98;40.43;99925.28;1888993;76;27142;-64
2021/03/24 11:49:36;;;;;;;3.65;2.65;;;;;;;7.03;40.64;99954.04;1846225;75;21247;-63
2021/03/24 11:52:26;;;;;;;9.33;3.25;;;;;;;7.03;40.12;99935.84;1790105;79;21491;-61
2021/03/24 11:55:34;;;;;;;6.40;3.52;;;;;;;6.86;40.40;99947.59;1812671;79;21027;-60
2021/03/24 11:58:38;;;;;;;7.75;3.98;;;;;;;6.73;40.82;99934.35;1778029;79;21058;-65
2021/03/24 12:01:41;;;;;;;4.22;3.83;;;;;;;6.64;41.09;99923.64;1809944;79;20996;-66
2021/03/24 12:04:29;;;;;;;2.50;2.25;;;;;;;6.46;40.84;99930.58;1809774;79;21050;-66
2021/03/24 12:07:37;;;;;;;3.37;2.70;;;;;;;6.42;40.53;99935.23;1795486;79;21596;-68
2021/03/24 12:10:37;;;;;;;6.12;2.37;;;;;;;6.45;41.08;99942.30;1764355;81;21030;-66
2021/03/24 12:13:14;;;;;;;3.40;2.87;;;;;;;6.53;41.30;99933.17;1767218;80;21030;-62
2021/03/24 12:15:42;;;;;;;3.63;3.30;;;;;;;6.60;40.88;99933.14;1781220;80;21588;-64
2021/03/24 12:18:17;;;;;;;5.75;3.20;;;;;;;6.62;41.04;99927.86;1781065;80;21066;-63
2021/03/24 12:20:51;;;;;;;13.08;3.83;;;;;;;6.61;41.40;99931.59;1787907;79;26518;-71
2021/03/24 12:23:20;;;;;;;8.33;2.72;;;;;;;6.69;41.83;99927.30;1810451;78;21100;-63
2021/03/24 12:25:53;;;;;;;3.85;2.67;;;;;;;6.81;41.57;99944.25;1789794;80;21132;-62
2021/03/24 12:28:40;;;;;;;2.80;2.50;;;;;;;6.81;41.33;99939.45;1796359;78;21027;-61
2021/03/24 12:31:19;;;;;;;6.22;3.10;;;;;;;6.78;41.55;99939.34;1775106;80;21202;-63
2021/03/24 12:33:58;;;;;;;4.83;3.15;;;;;;;6.82;41.42;99924.50;1793934;80;21260;-67
2021/03/24 12:36:29;;;;;;;12.60;5.05;;;;;;;6.82;41.33;99930.37;1790092;80;20955;-60
2021/03/24 12:39:08;;;;;;;5.15;3.90;;;;;;;6.77;40.77;99937.70;1785372;80;21014;-63
2021/03/24 12:41:40;;;;;;;5.97;3.42;;;;;;;6.71;41.17;99930.58;1751589;80;21115;-60
2021/03/24 12:44:37;;;;;;;7.92;5.25;;;;;;;6.75;41.11;99937.12;1760844;80;21111;-62
2021/03/24 12:47:34;;;;;;;5.80;4.03;;;;;;;6.79;40.47;99928.97;1789855;79;21194;-62
2021/03/24 12:50:16;;;;;;;5.72;2.90;;;;;;;6.82;40.75;99943.22;1779200;80;21078;-61